Time;durP1;ratioP1;P1;durP2;ratioP2;P2;SDS_P1;SDS_P2;PMS_P1;PMS_P2;Temp;Humidity;BMP_temperature;BMP_pressure;BME280_temperature;BME280_humidity;BME280_pressure;Samples;Min_cycle;Max_cycle;Signal;HPM_P1;HPM_P2
2022/04/09 00:01:33;;;;;;;8.40;4.43;;;7.20;99.90;;;;;;5074588;28;20434;-45
2022/04/09 00:03:59;;;;;;;7.10;3.80;;;7.20;99.90;;;;;;5074342;28;20475;-45
2022/04/09 00:06:26;;;;;;;8.77;4.00;;;7.30;99.90;;;;;;5074407;28;20431;-46
2022/04/09 00:08:52;;;;;;;5.97;3.80;;;7.00;99.90;;;;;;5073952;28;20464;-46
2022/04/09 00:11:20;;;;;;;5.50;3.97;;;6.90;99.90;;;;;;5074204;28;20507;-46
2022/04/09 00:13:47;;;;;;;7.37;3.30;;;7.00;99.90;;;;;;5074579;28;20515;-46
2022/04/09 00:16:14;;;;;;;7.70;3.90;;;7.00;99.90;;;;;;5074372;28;20447;-45
2022/04/09 00:18:43;;;;;;;6.63;3.70;;;6.70;99.90;;;;;;5073746;28;20486;-44
2022/04/09 00:21:09;;;;;;;4.07;3.67;;;6.90;99.90;;;;;;5056126;28;20444;-45
2022/04/09 00:23:36;;;;;;;5.10;3.80;;;7.20;99.90;;;;;;5074251;28;20478;-44
2022/04/09 00:26:03;;;;;;;5.57;3.47;;;6.90;99.90;;;;;;5074047;28;20441;-44
2022/04/09 00:28:31;;;;;;;7.43;3.90;;;6.80;99.90;;;;;;5073720;28;20441;-45
2022/04/09 00:30:57;;;;;;;5.97;3.40;;;7.30;99.90;;;;;;5074217;28;20474;-44
2022/04/09 00:33:24;;;;;;;10.60;4.63;;;7.50;99.90;;;;;;5056293;28;20443;-44
2022/04/09 00:35:51;;;;;;;7.50;4.63;;;7.00;99.90;;;;;;5074134;28;20427;-44
2022/04/09 00:38:17;;;;;;;6.27;4.17;;;7.00;99.90;;;;;;5056089;28;20444;-44
2022/04/09 00:40:44;;;;;;;5.87;3.53;;;6.70;99.90;;;;;;5073320;28;20416;-45
2022/04/09 00:43:11;;;;;;;6.80;3.97;;;6.90;99.90;;;;;;5055937;28;20430;-45
2022/04/09 00:45:40;;;;;;;9.70;3.83;;;7.00;99.90;;;;;;5074029;28;20427;-45
2022/04/09 00:48:08;;;;;;;8.40;4.10;;;6.90;99.90;;;;;;5073669;28;20970;-45
2022/04/09 00:50:36;;;;;;;5.00;3.90;;;7.10;99.90;;;;;;5055547;28;20474;-45
2022/04/09 00:53:03;;;;;;;7.53;4.80;;;6.60;99.90;;;;;;5073649;28;20428;-44
2022/04/09 00:58:17;;;;;;;11.80;8.57;;;6.70;99.90;;;;;;5055404;28;20464;-45
2022/04/09 01:00:46;;;;;;;10.20;4.40;;;6.80;99.90;;;;;;5054801;28;20453;-45
2022/04/09 01:03:16;;;;;;;7.43;4.10;;;6.80;99.90;;;;;;5073268;28;20444;-45
2022/04/09 01:05:44;;;;;;;6.07;4.10;;;6.70;99.90;;;;;;5073405;28;20466;-45
2022/04/09 01:08:11;;;;;;;3.70;2.87;;;6.70;99.90;;;;;;5073234;28;20461;-45
2022/04/09 01:10:37;;;;;;;6.17;4.10;;;6.70;99.90;;;;;;5055115;28;20424;-44
2022/04/09 01:13:05;;;;;;;5.90;3.80;;;6.50;99.90;;;;;;5055251;28;20421;-45
2022/04/09 01:15:32;;;;;;;7.10;3.23;;;6.80;99.90;;;;;;5055390;28;20440;-44
2022/04/09 01:18:01;;;;;;;5.30;3.50;;;6.50;99.90;;;;;;5055242;28;20997;-44
2022/04/09 01:20:29;;;;;;;8.03;3.30;;;6.70;99.90;;;;;;5055111;28;20458;-46
2022/04/09 01:22:57;;;;;;;5.57;2.97;;;6.70;99.90;;;;;;5055038;28;20556;-44
2022/04/09 01:25:24;;;;;;;7.27;3.57;;;6.70;99.90;;;;;;5072942;28;20908;-44
2022/04/09 01:27:56;;;;;;;10.37;3.83;;;6.60;99.90;;;;;;5054905;28;20502;-46
2022/04/09 01:30:23;;;;;;;9.73;3.63;;;6.60;99.90;;;;;;5054537;28;20460;-45
2022/04/09 01:32:50;;;;;;;10.30;3.20;;;6.80;99.90;;;;;;5054568;28;20445;-45
2022/04/09 01:35:17;;;;;;;8.17;3.27;;;6.20;99.90;;;;;;5055201;28;20533;-45
2022/04/09 01:37:44;;;;;;;4.90;3.27;;;6.50;99.90;;;;;;5054662;28;20473;-46
2022/04/09 01:40:12;;;;;;;7.07;3.33;;;6.30;99.90;;;;;;5051054;28;20422;-44
2022/04/09 01:42:43;;;;;;;7.80;2.93;;;6.50;99.90;;;;;;5035096;28;20457;-45
2022/04/09 01:45:10;;;;;;;5.25;3.28;;;6.30;99.90;;;;;;5034713;28;20475;-45
2022/04/09 01:47:41;;;;;;;11.32;2.97;;;6.20;99.90;;;;;;5034471;28;20676;-45
2022/04/09 01:50:10;;;;;;;8.10;3.77;;;6.40;99.90;;;;;;5034512;28;20597;-45
2022/04/09 01:52:37;;;;;;;11.40;2.93;;;6.30;99.90;;;;;;5052564;28;20436;-45
2022/04/09 01:55:04;;;;;;;7.70;3.30;;;6.10;99.90;;;;;;5049420;28;20521;-46
2022/04/09 01:57:33;;;;;;;10.63;3.33;;;6.30;99.90;;;;;;5051059;28;20520;-45
2022/04/09 02:00:00;;;;;;;6.37;3.60;;;6.00;99.90;;;;;;5033749;28;20492;-45
2022/04/09 02:02:27;;;;;;;7.93;2.73;;;6.20;99.90;;;;;;5034394;28;20443;-45
2022/04/09 02:04:54;;;;;;;7.40;3.27;;;6.00;99.90;;;;;;5052516;28;20508;-46
2022/04/09 02:07:20;;;;;;;9.40;3.83;;;6.40;99.90;;;;;;5034453;28;20443;-45
2022/04/09 02:09:47;;;;;;;5.83;2.80;;;6.30;99.90;;;;;;5033743;28;20522;-45
2022/04/09 02:12:14;;;;;;;6.57;3.33;;;6.20;99.90;;;;;;5033448;28;20500;-45
2022/04/09 02:14:42;;;;;;;6.27;2.93;;;6.10;99.90;;;;;;5034047;28;20989;-45
2022/04/09 02:17:09;;;;;;;11.60;3.00;;;6.10;99.90;;;;;;5051839;28;20816;-45
2022/04/09 02:19:35;;;;;;;10.43;4.00;;;5.90;99.90;;;;;;5051594;28;20434;-45
2022/04/09 02:22:02;;;;;;;8.37;3.20;;;6.30;99.90;;;;;;5034109;28;20480;-45
2022/04/09 02:24:29;;;;;;;6.17;3.20;;;6.20;99.90;;;;;;5051727;28;20483;-45
2022/04/09 02:26:56;;;;;;;12.60;3.30;;;6.20;99.90;;;;;;5034003;28;20425;-45
2022/04/09 02:29:22;;;;;;;6.53;3.20;;;5.90;99.90;;;;;;5033571;28;20474;-45
2022/04/09 02:31:50;;;;;;;7.47;3.03;;;6.00;99.90;;;;;;5033995;28;20211;-45
2022/04/09 02:34:17;;;;;;;7.03;2.50;;;6.10;99.90;;;;;;5050942;28;20509;-45
2022/04/09 02:36:45;;;;;;;5.70;2.73;;;6.00;99.90;;;;;;5034298;28;20473;-45
2022/04/09 02:39:12;;;;;;;7.20;3.93;;;6.00;99.90;;;;;;5033474;28;21069;-45
2022/04/09 02:41:39;;;;;;;8.73;3.03;;;6.00;99.90;;;;;;5052168;28;20458;-45
2022/04/09 02:44:07;;;;;;;10.43;3.13;;;6.10;99.90;;;;;;5053806;28;20488;-45
2022/04/09 02:46:34;;;;;;;7.33;2.70;;;6.20;99.90;;;;;;5054112;28;20282;-45
2022/04/09 02:49:03;;;;;;;11.60;3.50;;;6.00;99.90;;;;;;5053668;28;20505;-45
2022/04/09 02:51:29;;;;;;;6.30;3.47;;;5.90;99.90;;;;;;5071958;28;20430;-45
2022/04/09 02:53:56;;;;;;;11.05;3.53;;;5.80;99.90;;;;;;5071710;28;20447;-44
2022/04/09 02:56:23;;;;;;;4.10;2.72;;;5.70;99.90;;;;;;5053771;28;20661;-45
2022/04/09 02:58:50;;;;;;;5.77;3.00;;;6.00;99.90;;;;;;5053324;28;20326;-45
2022/04/09 03:01:17;;;;;;;4.40;3.27;;;6.00;99.90;;;;;;5053963;28;20798;-45
2022/04/09 03:03:44;;;;;;;7.47;4.03;;;5.70;99.90;;;;;;5071456;28;20426;-45
2022/04/09 03:06:12;;;;;;;5.00;2.90;;;5.80;99.90;;;;;;5053567;28;20217;-45
2022/04/09 03:08:39;;;;;;;5.75;3.22;;;5.80;99.90;;;;;;5053084;28;20309;-45
2022/04/09 03:11:06;;;;;;;6.20;3.43;;;;;;;;;;5055414;28;20204;-44
2022/04/09 03:13:32;;;;;;;7.45;3.47;;;5.60;99.90;;;;;;5054660;28;20524;-45
2022/04/09 03:15:59;;;;;;;8.30;3.33;;;5.60;99.90;;;;;;5055758;28;20199;-44
2022/04/09 03:18:28;;;;;;;5.35;3.20;;;5.30;99.90;;;;;;5054961;28;20523;-44
2022/04/09 03:20:55;;;;;;;8.70;3.50;;;5.60;99.90;;;;;;5073173;28;20202;-44
2022/04/09 03:23:25;;;;;;;8.73;3.47;;;5.50;99.90;;;;;;5056490;28;20211;-44
2022/04/09 03:25:56;;;;;;;8.60;4.15;;;5.40;99.90;;;;;;5059143;28;20278;-46
2022/04/09 03:28:29;;;;;;;6.88;3.28;;;5.40;99.90;;;;;;5057839;28;20230;-45
2022/04/09 03:30:56;;;;;;;4.20;2.97;;;5.40;99.90;;;;;;5058648;28;20223;-45
2022/04/09 03:33:22;;;;;;;7.75;3.47;;;5.30;99.90;;;;;;5076203;28;20198;-45
2022/04/09 03:35:56;;;;;;;9.65;3.10;;;5.40;99.90;;;;;;5058459;28;20196;-45
2022/04/09 03:38:28;;;;;;;4.30;3.08;;;5.30;99.90;;;;;;5058257;28;20242;-45
2022/04/09 03:40:57;;;;;;;6.07;3.30;;;5.30;99.90;;;;;;5055519;28;20294;-44
2022/04/09 03:43:36;;;;;;;7.25;3.42;;;;;;;;;;5038281;28;20227;-46
2022/04/09 03:46:03;;;;;;;13.13;3.35;;;5.20;99.90;;;;;;5038681;28;20226;-46
2022/04/09 03:48:31;;;;;;;6.32;3.60;;;5.40;99.90;;;;;;5038426;28;20224;-45
2022/04/09 03:50:58;;;;;;;8.33;3.30;;;5.10;99.90;;;;;;5038163;28;20203;-45
2022/04/09 03:53:25;;;;;;;9.50;3.93;;;5.20;99.90;;;;;;5060511;28;20437;-45
2022/04/09 03:55:59;;;;;;;6.65;3.25;;;5.40;99.90;;;;;;5057603;28;20461;-45
2022/04/09 03:58:26;;;;;;;5.53;3.20;;;5.40;99.90;;;;;;5056881;28;20708;-45
2022/04/09 04:00:55;;;;;;;8.95;3.20;;;5.30;99.90;;;;;;5057294;28;20464;-44
2022/04/09 04:03:25;;;;;;;8.75;3.40;;;5.10;99.90;;;;;;5057401;28;20243;-44
2022/04/09 04:05:53;;;;;;;6.45;3.67;;;5.10;99.90;;;;;;5057321;28;20223;-44
2022/04/09 04:08:20;;;;;;;11.95;3.95;;;5.30;99.90;;;;;;5057471;28;20250;-44
2022/04/09 04:10:47;;;;;;;6.35;3.40;;;5.00;99.90;;;;;;5056697;28;20195;-44
2022/04/09 04:13:35;;;;;;;8.85;3.53;;;5.00;99.90;;;;;;5056648;28;20282;-45
2022/04/09 04:16:04;;;;;;;5.90;4.25;;;4.80;99.90;;;;;;5056873;28;20196;-45
2022/04/09 04:18:32;;;;;;;8.63;3.30;;;5.00;99.90;;;;;;5056118;28;20716;-44
2022/04/09 04:21:00;;;;;;;8.85;3.80;;;4.90;99.90;;;;;;5056636;28;20200;-45
2022/04/09 04:23:29;;;;;;;4.00;2.80;;;;;;;;;;5056683;28;20199;-44
2022/04/09 04:26:04;;;;;;;5.68;3.28;;;4.90;99.90;;;;;;5058662;28;20223;-44
2022/04/09 04:28:33;;;;;;;12.20;2.92;;;4.90;99.90;;;;;;5057409;28;20228;-44
2022/04/09 04:30:59;;;;;;;6.88;3.22;;;5.00;99.90;;;;;;5057428;28;20548;-45
2022/04/09 04:33:26;;;;;;;5.93;3.03;;;5.00;99.90;;;;;;5057231;28;20206;-45
2022/04/09 04:35:57;;;;;;;6.70;3.28;;;5.20;99.90;;;;;;5055483;28;20195;-45
2022/04/09 04:38:27;;;;;;;6.93;3.95;;;;;;;;;;5055304;28;20707;-45
2022/04/09 04:40:56;;;;;;;6.65;3.63;;;5.00;99.90;;;;;;5052489;28;20211;-44
2022/04/09 04:43:24;;;;;;;7.00;4.05;;;5.10;99.90;;;;;;5036162;28;20204;-46
2022/04/09 04:45:52;;;;;;;6.75;3.90;;;5.20;99.90;;;;;;5035854;28;20232;-44
2022/04/09 04:48:20;;;;;;;6.95;3.22;;;4.80;99.90;;;;;;5035796;28;20227;-44
2022/04/09 04:50:47;;;;;;;8.05;3.33;;;5.10;99.90;;;;;;5035643;28;20215;-44
2022/04/09 04:53:15;;;;;;;11.45;4.18;;;;;;;;;;5039082;28;20533;-45
2022/04/09 04:55:51;;;;;;;9.20;3.65;;;5.10;99.90;;;;;;5056139;28;20199;-45
2022/04/09 04:58:21;;;;;;;7.90;3.50;;;5.30;99.90;;;;;;5056734;28;20231;-45
2022/04/09 05:00:57;;;;;;;9.10;3.78;;;5.00;99.90;;;;;;5055752;28;20213;-46
2022/04/09 05:03:23;;;;;;;12.18;3.95;;;5.10;99.90;;;;;;5073671;28;20270;-46
2022/04/09 05:06:00;;;;;;;9.77;3.17;;;5.00;99.90;;;;;;5055434;28;20222;-45
2022/04/09 05:08:27;;;;;;;12.70;3.80;;;5.10;99.90;;;;;;5072691;28;20797;-46
2022/04/09 05:10:54;;;;;;;11.68;5.32;;;5.30;99.90;;;;;;5073210;28;20590;-45
2022/04/09 05:13:24;;;;;;;5.75;4.10;;;5.00;99.90;;;;;;5055113;28;20632;-45
2022/04/09 05:15:51;;;;;;;7.75;4.55;;;4.80;99.90;;;;;;5055242;28;20679;-46
2022/04/09 05:18:19;;;;;;;9.93;3.95;;;5.10;99.90;;;;;;5055349;28;20758;-44
2022/04/09 05:20:48;;;;;;;7.80;3.70;;;4.90;99.90;;;;;;5055002;28;20211;-45
2022/04/09 05:23:15;;;;;;;14.63;4.30;;;5.20;99.90;;;;;;5055040;28;20260;-45
2022/04/09 05:25:44;;;;;;;7.13;3.83;;;5.30;99.90;;;;;;5055294;28;20221;-45
2022/04/09 05:28:11;;;;;;;8.77;3.60;;;5.30;99.90;;;;;;5055719;28;20594;-42
2022/04/09 05:30:43;;;;;;;11.73;3.83;;;5.20;99.90;;;;;;5055229;28;20229;-44
2022/04/09 05:33:10;;;;;;;6.60;3.40;;;5.10;99.90;;;;;;5055300;28;20261;-44
2022/04/09 05:35:40;;;;;;;13.35;4.63;;;5.50;99.90;;;;;;5055557;28;20195;-44
2022/04/09 05:38:09;;;;;;;7.75;3.80;;;5.40;99.90;;;;;;5055258;28;20770;-44
2022/04/09 05:40:36;;;;;;;8.63;3.35;;;5.60;99.90;;;;;;5051732;28;20703;-43
2022/04/09 05:43:12;;;;;;;6.25;3.42;;;5.40;99.90;;;;;;5035487;28;20567;-44
2022/04/09 05:45:41;;;;;;;10.18;5.70;;;5.70;99.90;;;;;;5035321;28;20600;-44
2022/04/09 05:48:08;;;;;;;11.00;4.05;;;5.80;99.90;;;;;;5035280;28;20247;-43
2022/04/09 05:50:50;;;;;;;9.43;3.00;;;5.90;99.90;;;;;;5035034;28;20200;-44
2022/04/09 05:53:18;;;;;;;10.63;4.05;;;5.50;99.90;;;;;;5035533;28;20676;-43
2022/04/09 05:55:46;;;;;;;9.55;3.60;;;5.90;99.90;;;;;;5035001;28;20192;-41
2022/04/09 05:58:14;;;;;;;10.30;3.47;;;5.70;99.90;;;;;;5053014;28;20220;-44
2022/04/09 06:00:42;;;;;;;6.13;3.65;;;5.90;99.90;;;;;;5034848;28;20548;-44
2022/04/09 06:03:22;;;;;;;15.40;3.60;;;6.00;99.90;;;;;;5035191;28;20200;-43
2022/04/09 06:05:50;;;;;;;15.43;3.50;;;6.30;99.90;;;;;;5034938;28;20227;-44
2022/04/09 06:08:26;;;;;;;7.70;3.30;;;6.20;99.90;;;;;;5034845;28;20773;-44
2022/04/09 06:10:56;;;;;;;4.90;3.17;;;6.60;99.90;;;;;;5035371;28;20455;-43
2022/04/09 06:13:23;;;;;;;5.57;2.90;;;6.00;99.90;;;;;;5035021;28;20470;-44
2022/04/09 06:15:50;;;;;;;6.85;3.38;;;6.20;99.90;;;;;;5035257;28;20572;-44
2022/04/09 06:18:22;;;;;;;5.60;3.10;;;6.70;99.90;;;;;;5051520;28;20251;-44
2022/04/09 06:20:50;;;;;;;11.43;3.80;;;6.10;99.90;;;;;;5034942;28;20478;-42
2022/04/09 06:23:19;;;;;;;13.20;3.67;;;6.70;99.90;;;;;;5037127;28;20504;-43
2022/04/09 06:25:46;;;;;;;11.83;3.50;;;6.40;99.90;;;;;;5056928;28;20476;-42
2022/04/09 06:28:15;;;;;;;7.63;3.53;;;6.60;99.90;;;;;;5035886;28;21035;-43
2022/04/09 06:30:46;;;;;;;7.53;4.10;;;;;;;;;;5036208;28;20452;-44
2022/04/09 06:33:22;;;;;;;13.03;4.10;;;6.60;99.90;;;;;;5052859;28;20505;-43
2022/04/09 06:35:50;;;;;;;11.07;4.90;;;6.90;99.90;;;;;;5036437;28;20543;-43
2022/04/09 06:38:21;;;;;;;6.40;2.90;;;6.50;99.90;;;;;;5035829;28;20562;-44
2022/04/09 06:40:48;;;;;;;10.03;3.40;;;6.90;99.90;;;;;;5047525;28;20458;-46
2022/04/09 06:43:19;;;;;;;7.63;3.43;;;7.00;99.90;;;;;;5057023;28;20446;-44
2022/04/09 06:46:03;;;;;;;10.43;3.80;;;6.90;99.90;;;;;;5056451;28;20482;-43
2022/04/09 06:48:45;;;;;;;10.20;3.70;;;7.10;99.90;;;;;;5057283;28;20469;-44
2022/04/09 06:51:33;;;;;;;6.97;3.30;;;7.10;99.90;;;;;;5075091;28;20447;-45
2022/04/09 06:54:06;;;;;;;8.70;3.63;;;6.90;99.90;;;;;;5058067;28;20446;-45
2022/04/09 06:56:33;;;;;;;9.80;3.73;;;7.00;99.90;;;;;;5055794;28;20443;-44
2022/04/09 06:59:00;;;;;;;10.33;4.23;;;7.20;99.90;;;;;;5058834;28;20502;-44
2022/04/09 07:01:28;;;;;;;7.80;3.23;;;7.30;99.90;;;;;;5062052;28;20538;-43
2022/04/09 07:03:56;;;;;;;7.07;3.87;;;7.30;99.90;;;;;;5060424;28;20503;-43
2022/04/09 07:06:23;;;;;;;11.67;4.10;;;7.50;99.90;;;;;;5057873;28;20969;-43
2022/04/09 07:08:51;;;;;;;10.03;4.33;;;7.70;99.90;;;;;;5077493;28;20469;-43
2022/04/09 07:11:17;;;;;;;10.43;3.77;;;7.30;99.90;;;;;;5078372;28;20433;-44
2022/04/09 07:13:44;;;;;;;14.50;3.73;;;7.60;99.90;;;;;;5077402;28;20791;-44
2022/04/09 07:16:10;;;;;;;9.30;3.77;;;7.60;99.90;;;;;;5077392;28;20432;-44
2022/04/09 07:18:37;;;;;;;9.70;3.43;;;7.80;99.90;;;;;;5075765;28;20475;-44
2022/04/09 07:21:04;;;;;;;14.10;4.03;;;8.20;99.90;;;;;;5076403;28;20431;-44
2022/04/09 07:23:30;;;;;;;14.83;4.33;;;8.10;99.90;;;;;;5076778;28;20940;-44
2022/04/09 07:25:58;;;;;;;4.90;3.20;;;7.90;99.90;;;;;;5076102;28;20461;-45
2022/04/09 07:28:25;;;;;;;20.20;7.30;;;8.50;99.90;;;;;;5076032;28;20474;-44
2022/04/09 07:30:52;;;;;;;6.47;3.77;;;8.00;99.90;;;;;;5075973;28;20440;-45
2022/04/09 07:33:18;;;;;;;15.90;5.40;;;8.80;99.90;;;;;;5076118;28;20435;-44
2022/04/09 07:35:45;;;;;;;10.20;4.30;;;8.40;99.90;;;;;;5075727;28;20519;-43
2022/04/09 07:38:12;;;;;;;7.47;3.70;;;;;;;;;;5076468;28;20452;-44
2022/04/09 07:40:38;;;;;;;9.90;2.87;;;8.40;99.90;;;;;;5076144;28;20451;-44
2022/04/09 07:43:07;;;;;;;7.27;3.40;;;8.30;99.90;;;;;;5075644;28;20451;-44
2022/04/09 07:45:33;;;;;;;6.90;3.40;;;8.70;99.90;;;;;;5076009;28;20860;-45
2022/04/09 07:48:01;;;;;;;11.03;3.23;;;8.70;99.90;;;;;;5075991;28;20450;-44
2022/04/09 07:50:28;;;;;;;8.20;3.40;;;8.70;99.80;;;;;;5075761;28;20795;-44
2022/04/09 07:52:56;;;;;;;8.57;3.70;;;8.90;99.90;;;;;;5075941;28;20425;-43
2022/04/09 07:55:23;;;;;;;7.30;3.33;;;8.70;99.50;;;;;;5076416;28;20447;-42
2022/04/09 07:57:51;;;;;;;11.03;3.83;;;9.00;99.90;;;;;;5058959;28;20504;-45
2022/04/09 08:00:21;;;;;;;10.80;3.80;;;8.90;99.70;;;;;;5076483;28;20946;-44
2022/04/09 08:02:47;;;;;;;6.67;3.17;;;9.20;99.70;;;;;;5075910;28;20439;-44
2022/04/09 08:05:16;;;;;;;10.50;3.90;;;8.80;98.80;;;;;;5076839;28;20555;-44
2022/04/09 08:07:43;;;;;;;12.60;3.07;;;9.00;98.30;;;;;;5076538;28;20473;-44
2022/04/09 08:10:12;;;;;;;16.93;3.97;;;9.00;98.80;;;;;;5074145;28;20634;-43
2022/04/09 08:12:39;;;;;;;9.73;3.47;;;8.80;98.30;;;;;;5057193;28;20428;-43
2022/04/09 08:15:07;;;;;;;10.37;4.00;;;8.90;97.90;;;;;;5074867;28;20438;-43
2022/04/09 08:17:37;;;;;;;8.77;3.70;;;8.90;97.60;;;;;;5074987;28;20438;-42
2022/04/09 08:20:05;;;;;;;9.67;2.97;;;8.80;97.80;;;;;;5075017;28;20443;-44
2022/04/09 08:22:32;;;;;;;8.80;3.93;;;8.90;97.70;;;;;;5075431;28;20424;-44
2022/04/09 08:24:59;;;;;;;9.43;3.50;;;;;;;;;;5076598;28;20429;-44
2022/04/09 08:27:25;;;;;;;8.53;3.73;;;9.20;96.80;;;;;;5075780;28;20484;-44
2022/04/09 08:29:52;;;;;;;12.27;4.70;;;9.10;97.00;;;;;;5074991;28;20464;-43
2022/04/09 08:32:19;;;;;;;7.93;3.20;;;9.40;96.20;;;;;;5074960;28;20438;-45
2022/04/09 08:34:46;;;;;;;8.37;4.70;;;9.40;96.60;;;;;;5057104;28;21004;-44
2022/04/09 08:37:13;;;;;;;9.37;3.90;;;9.70;96.10;;;;;;5075200;28;20438;-45
2022/04/09 08:39:40;;;;;;;11.20;3.10;;;10.00;95.70;;;;;;5074964;28;20460;-44
2022/04/09 08:42:07;;;;;;;12.53;2.97;;;9.50;94.30;;;;;;5056862;28;20955;-43
2022/04/09 08:44:35;;;;;;;9.33;2.83;;;9.70;94.10;;;;;;5075203;28;20429;-44
2022/04/09 08:47:01;;;;;;;5.10;3.10;;;9.80;94.10;;;;;;5075214;28;20489;-44
2022/04/09 08:49:30;;;;;;;8.57;2.60;;;9.70;93.20;;;;;;5074331;28;20454;-43
2022/04/09 08:51:58;;;;;;;10.03;4.23;;;9.70;93.80;;;;;;5074891;28;20441;-43
2022/04/09 08:54:25;;;;;;;6.30;2.80;;;10.10;92.30;;;;;;5076096;28;20434;-44
2022/04/09 08:56:52;;;;;;;7.63;2.80;;;10.40;92.90;;;;;;5074684;28;20437;-44
2022/04/09 08:59:18;;;;;;;9.00;3.70;;;9.30;92.80;;;;;;5074577;28;20498;-45
2022/04/09 09:01:45;;;;;;;7.70;3.30;;;9.80;92.80;;;;;;5074632;28;20474;-44
2022/04/09 09:04:12;;;;;;;12.87;3.23;;;9.60;92.30;;;;;;5075779;28;20506;-44
2022/04/09 09:06:40;;;;;;;4.23;2.70;;;9.50;92.60;;;;;;5076431;28;20536;-45
2022/04/09 09:09:14;;;;;;;7.53;2.73;;;9.80;92.60;;;;;;5074196;28;20544;-44
2022/04/09 09:11:48;;;;;;;6.87;2.37;;;9.50;92.20;;;;;;5074583;28;20795;-44
2022/04/09 09:14:25;;;;;;;9.00;3.60;;;9.80;92.20;;;;;;5075016;28;20430;-43
2022/04/09 09:16:54;;;;;;;7.63;2.73;;;9.90;90.90;;;;;;5074443;28;20436;-45
2022/04/09 09:19:21;;;;;;;11.50;2.70;;;10.00;90.40;;;;;;5077357;28;20843;-44
2022/04/09 09:21:52;;;;;;;8.30;3.53;;;10.20;90.20;;;;;;5076350;28;20935;-44
2022/04/09 09:24:21;;;;;;;7.60;2.53;;;10.10;90.70;;;;;;5076069;28;20997;-43
2022/04/09 09:26:57;;;;;;;8.23;2.53;;;10.60;88.90;;;;;;5056664;28;20477;-44
2022/04/09 09:29:27;;;;;;;8.17;2.77;;;10.20;88.80;;;;;;5073899;28;20472;-44
2022/04/09 09:31:55;;;;;;;10.60;3.10;;;9.50;88.70;;;;;;5074526;28;20433;-46
2022/04/09 09:34:22;;;;;;;7.17;2.80;;;10.40;88.90;;;;;;5074221;28;20914;-45
2022/04/09 09:36:49;;;;;;;9.60;2.60;;;9.90;89.30;;;;;;5074293;28;20790;-43
2022/04/09 09:39:18;;;;;;;8.80;2.60;;;10.40;87.90;;;;;;5074314;28;20445;-46
2022/04/09 09:41:53;;;;;;;5.23;2.23;;;10.60;82.80;;;;;;5074294;28;20470;-46
2022/04/09 09:44:21;;;;;;;8.90;2.43;;;10.40;83.60;;;;;;5074431;28;20437;-44
2022/04/09 09:46:49;;;;;;;3.77;2.47;;;10.80;81.60;;;;;;5073981;28;20473;-44
2022/04/09 09:49:16;;;;;;;7.63;2.67;;;10.70;83.00;;;;;;5074183;28;20457;-44
2022/04/09 09:51:43;;;;;;;9.10;2.63;;;11.30;83.60;;;;;;5074113;28;20452;-44
2022/04/09 09:54:11;;;;;;;8.23;2.20;;;11.00;82.20;;;;;;5075058;28;20442;-43
2022/04/09 09:56:41;;;;;;;8.23;2.33;;;11.30;80.80;;;;;;5074627;28;20438;-44
2022/04/09 09:59:10;;;;;;;5.90;2.60;;;11.30;78.10;;;;;;5073847;28;20453;-44
2022/04/09 10:01:38;;;;;;;6.07;3.03;;;11.30;79.70;;;;;;5075017;28;20454;-45
2022/04/09 10:04:06;;;;;;;5.40;2.47;;;10.90;79.00;;;;;;5074817;28;20445;-44
2022/04/09 10:06:34;;;;;;;7.17;2.60;;;11.60;78.40;;;;;;5074946;28;20503;-44
2022/04/09 10:09:02;;;;;;;6.73;3.50;;;11.20;78.20;;;;;;5075061;28;20458;-44
2022/04/09 10:11:30;;;;;;;6.17;2.13;;;11.60;79.50;;;;;;5074835;28;20434;-46
2022/04/09 10:13:58;;;;;;;5.40;2.60;;;11.20;76.40;;;;;;5074406;28;20452;-45
2022/04/09 10:16:28;;;;;;;5.90;2.60;;;11.30;75.80;;;;;;5074737;28;20437;-44
2022/04/09 10:19:00;;;;;;;6.60;2.33;;;11.20;75.40;;;;;;5073919;28;20461;-43
2022/04/09 10:21:28;;;;;;;11.43;2.83;;;11.80;75.70;;;;;;5074641;28;20446;-43
2022/04/09 10:23:56;;;;;;;7.57;3.30;;;11.40;75.40;;;;;;5074013;28;20445;-44
2022/04/09 10:26:23;;;;;;;7.00;2.60;;;11.70;75.60;;;;;;5074436;28;20478;-44
2022/04/09 10:28:51;;;;;;;7.43;3.07;;;12.10;73.80;;;;;;5073127;28;20473;-44
2022/04/09 10:31:36;;;;;;;4.93;2.20;;;11.80;74.00;;;;;;5073125;28;20446;-46
2022/04/09 10:34:04;;;;;;;5.77;2.40;;;11.70;72.90;;;;;;5072301;28;20435;-45
2022/04/09 10:37:02;;;;;;;6.00;2.77;;;12.30;74.30;;;;;;5072857;28;20513;-43
2022/04/09 10:39:36;;;;;;;7.40;2.40;;;11.90;73.50;;;;;;5065554;28;20509;-44
2022/04/09 10:42:03;;;;;;;5.60;2.07;;;12.00;74.30;;;;;;5073081;28;20441;-44
2022/04/09 10:44:52;;;;;;;4.13;1.97;;;11.80;72.00;;;;;;5073278;28;20484;-44
2022/04/09 10:47:20;;;;;;;6.30;2.63;;;11.70;71.90;;;;;;5073048;28;20514;-44
2022/04/09 10:50:08;;;;;;;4.60;2.60;;;11.30;71.50;;;;;;5072478;28;20450;-45
2022/04/09 10:52:38;;;;;;;5.37;2.80;;;11.90;73.00;;;;;;5072181;28;20810;-45
2022/04/09 10:55:24;;;;;;;6.07;2.50;;;11.80;72.90;;;;;;5072030;28;20463;-45
2022/04/09 10:57:59;;;;;;;6.00;2.20;;;12.00;71.80;;;;;;5071458;28;20559;-44
2022/04/09 11:00:30;;;;;;;5.20;2.73;;;11.70;73.10;;;;;;5072068;28;20431;-45
2022/04/09 11:03:34;;;;;;;5.63;2.20;;;12.10;71.80;;;;;;5072342;28;20444;-44
2022/04/09 11:06:40;;;;;;;6.80;2.10;;;12.20;72.30;;;;;;5065742;28;20458;-44
2022/04/09 11:09:07;;;;;;;6.90;2.23;;;12.10;71.50;;;;;;5071600;28;20456;-44
2022/04/09 11:11:34;;;;;;;4.17;2.17;;;11.90;71.70;;;;;;5072388;28;20454;-45
2022/04/09 11:14:01;;;;;;;8.33;2.23;;;12.20;72.40;;;;;;5054306;28;20540;-46
2022/04/09 11:16:34;;;;;;;5.47;2.37;;;12.20;72.40;;;;;;5072662;28;20426;-44
2022/04/09 11:19:02;;;;;;;4.53;2.13;;;12.50;72.00;;;;;;5071445;28;20447;-44
2022/04/09 11:21:30;;;;;;;4.47;2.00;;;11.90;71.20;;;;;;5072204;28;20463;-45
2022/04/09 11:24:07;;;;;;;4.63;2.27;;;12.90;71.60;;;;;;5072429;28;20936;-45
2022/04/09 11:26:34;;;;;;;3.70;2.30;;;12.50;69.90;;;;;;5072270;28;20546;-44
2022/04/09 11:29:09;;;;;;;5.23;2.60;;;12.80;68.40;;;;;;5110451;22;20864;-54
2022/04/09 11:31:45;;;;;;;3.90;1.93;;;;;;;;;;5130945;28;20424;-52
2022/04/09 11:34:13;;;;;;;4.73;2.00;;;12.40;67.50;;;;;;5130865;28;20941;-53
2022/04/09 11:36:40;;;;;;;4.40;1.70;;;12.30;67.30;;;;;;5131161;28;20438;-53
2022/04/09 11:39:06;;;;;;;3.60;1.50;;;12.40;67.50;;;;;;5130960;28;20452;-53
2022/04/09 11:41:33;;;;;;;8.23;2.07;;;12.60;66.30;;;;;;5131233;27;20443;-51
2022/04/09 11:44:00;;;;;;;7.37;2.53;;;12.50;66.40;;;;;;5132634;27;20793;-52
2022/04/09 11:46:32;;;;;;;4.90;1.70;;;12.50;66.80;;;;;;5134976;27;20423;-52
2022/04/09 11:49:02;;;;;;;2.80;1.67;;;;;;;;;;5134379;27;20457;-52
2022/04/09 11:51:30;;;;;;;6.73;2.50;;;;;;;;;;5134832;27;20437;-52
2022/04/09 11:54:12;;;;;;;2.20;1.83;;;;;;;;;;5125514;27;20434;-52
2022/04/09 11:56:40;;;;;;;2.90;1.57;;;12.90;66.10;;;;;;5114334;28;20500;-52
2022/04/09 11:59:11;;;;;;;3.20;1.63;;;12.90;65.70;;;;;;5113935;28;20472;-51
2022/04/09 12:01:38;;;;;;;7.60;2.60;;;;;;;;;;5113854;28;20436;-52
2022/04/09 12:04:05;;;;;;;6.40;2.57;;;12.90;66.80;;;;;;5113654;28;20915;-51
2022/04/09 12:06:33;;;;;;;6.37;1.57;;;;;;;;;;5113553;28;20903;-51
2022/04/09 12:09:00;;;;;;;7.20;2.10;;;12.80;67.80;;;;;;5113024;28;20463;-52
2022/04/09 12:11:27;;;;;;;4.50;1.77;;;12.70;68.90;;;;;;5113624;28;20453;-52
2022/04/09 12:13:53;;;;;;;4.27;1.83;;;12.70;68.70;;;;;;5095171;28;20491;-51
2022/04/09 12:16:20;;;;;;;3.50;1.40;;;12.50;68.70;;;;;;5113529;28;20426;-51
2022/04/09 12:18:49;;;;;;;4.73;1.70;;;;;;;;;;5113074;28;20459;-54
2022/04/09 12:21:19;;;;;;;5.00;2.37;;;;;;;;;;5113618;28;20442;-51
2022/04/09 12:23:48;;;;;;;2.40;1.37;;;;;;;;;;5113435;28;20439;-51
2022/04/09 12:26:25;;;;;;;5.47;1.93;;;;;;;;;;5111520;28;20458;-53
2022/04/09 12:29:07;;;;;;;5.83;1.80;;;12.90;67.00;;;;;;5112515;28;20488;-51
2022/04/09 12:31:33;;;;;;;3.30;1.50;;;12.70;64.90;;;;;;5112348;28;20432;-53
2022/04/09 12:34:00;;;;;;;3.33;1.80;;;13.10;66.20;;;;;;5112916;28;20439;-51
2022/04/09 12:36:27;;;;;;;3.10;1.53;;;12.90;66.90;;;;;;5113075;28;20463;-52
2022/04/09 12:38:55;;;;;;;3.83;2.00;;;12.80;67.00;;;;;;5112456;28;20451;-52
2022/04/09 12:41:22;;;;;;;6.77;2.27;;;13.10;68.00;;;;;;5129070;27;20539;-52
2022/04/09 12:43:52;;;;;;;3.00;1.90;;;13.10;67.50;;;;;;5133830;27;20457;-51
2022/04/09 12:46:19;;;;;;;3.43;2.17;;;;;;;;;;5133706;27;20830;-52
2022/04/09 12:48:49;;;;;;;4.47;1.80;;;13.20;67.70;;;;;;5132857;27;20480;-52
2022/04/09 12:51:18;;;;;;;8.07;1.93;;;13.50;67.20;;;;;;5133219;27;20528;-53
2022/04/09 12:53:48;;;;;;;3.17;1.27;;;13.00;66.50;;;;;;5107332;28;20506;-52
2022/04/09 12:56:17;;;;;;;2.57;1.20;;;13.40;66.50;;;;;;5112140;28;20430;-52
2022/04/09 12:58:44;;;;;;;4.63;2.07;;;12.90;66.70;;;;;;5113203;28;20462;-52
2022/04/09 13:01:13;;;;;;;1.67;1.30;;;;;;;;;;5113414;28;20439;-52
2022/04/09 13:03:40;;;;;;;4.10;1.60;;;12.80;68.30;;;;;;5112928;28;20428;-52
2022/04/09 13:06:07;;;;;;;2.83;1.30;;;12.90;69.30;;;;;;5112846;28;20792;-52
2022/04/09 13:08:34;;;;;;;4.30;1.33;;;;;;;;;;5112345;28;20570;-52
2022/04/09 13:11:03;;;;;;;1.80;1.00;;;;;;;;;;5112508;28;20890;-52
2022/04/09 13:13:31;;;;;;;3.53;1.07;;;;;;;;;;5112133;28;20469;-53